sensor_id;sensor_type;location;lat;lon;timestamp;P1;P2;P0
62599;PMS7003;48671;48.922;2.346;2022-09-03T00:02:08;12.25;9.75;7.75
62599;PMS7003;48671;48.922;2.346;2022-09-03T00:10:21;10.00;10.00;7.25
62599;PMS7003;48671;48.922;2.346;2022-09-03T00:12:53;11.50;10.00;8.50
62599;PMS7003;48671;48.922;2.346;2022-09-03T00:15:24;8.50;8.50;7.50
62599;PMS7003;48671;48.922;2.346;2022-09-03T00:18:40;10.00;10.00;7.50
62599;PMS7003;48671;48.922;2.346;2022-09-03T00:20:40;7.25;7.00;5.50
62599;PMS7003;48671;48.922;2.346;2022-09-03T00:23:13;15.00;13.00;10.50
62599;PMS7003;48671;48.922;2.346;2022-09-03T00:25:45;8.75;8.00;7.00
62599;PMS7003;48671;48.922;2.346;2022-09-03T00:28:21;12.50;12.00;8.75
62599;PMS7003;48671;48.922;2.346;2022-09-03T00:30:51;12.25;12.25;8.25
62599;PMS7003;48671;48.922;2.346;2022-09-03T00:33:27;10.00;10.00;8.25
62599;PMS7003;48671;48.922;2.346;2022-09-03T00:36:11;11.50;9.00;7.25
62599;PMS7003;48671;48.922;2.346;2022-09-03T00:38:43;11.50;11.25;7.00
62599;PMS7003;48671;48.922;2.346;2022-09-03T00:49:08;15.00;10.00;7.75
62599;PMS7003;48671;48.922;2.346;2022-09-03T00:57:22;10.50;9.75;6.75
62599;PMS7003;48671;48.922;2.346;2022-09-03T01:00:09;11.00;11.00;8.50
62599;PMS7003;48671;48.922;2.346;2022-09-03T01:02:52;12.00;9.25;7.00
62599;PMS7003;48671;48.922;2.346;2022-09-03T01:07:58;7.00;7.00;5.00
62599;PMS7003;48671;48.922;2.346;2022-09-03T01:10:48;8.25;7.00;6.00
62599;PMS7003;48671;48.922;2.346;2022-09-03T01:13:26;9.75;9.25;7.50
62599;PMS7003;48671;48.922;2.346;2022-09-03T01:30:31;9.00;7.75;5.50
62599;PMS7003;48671;48.922;2.346;2022-09-03T01:35:48;9.25;9.25;7.00
62599;PMS7003;48671;48.922;2.346;2022-09-03T01:38:31;8.50;8.50;6.00
62599;PMS7003;48671;48.922;2.346;2022-09-03T01:46:51;10.50;10.00;7.00
62599;PMS7003;48671;48.922;2.346;2022-09-03T01:52:12;8.00;8.00;5.00
62599;PMS7003;48671;48.922;2.346;2022-09-03T01:57:22;9.00;8.00;6.50
62599;PMS7003;48671;48.922;2.346;2022-09-03T02:00:10;8.50;8.50;6.50
62599;PMS7003;48671;48.922;2.346;2022-09-03T02:02:40;8.75;7.25;6.00
62599;PMS7003;48671;48.922;2.346;2022-09-03T02:05:09;9.00;8.00;6.00
62599;PMS7003;48671;48.922;2.346;2022-09-03T02:07:42;9.00;9.00;7.00
62599;PMS7003;48671;48.922;2.346;2022-09-03T02:10:13;11.00;8.00;5.00
62599;PMS7003;48671;48.922;2.346;2022-09-03T02:12:46;11.25;9.00;5.75
62599;PMS7003;48671;48.922;2.346;2022-09-03T02:15:17;8.75;7.75;6.75
62599;PMS7003;48671;48.922;2.346;2022-09-03T02:17:46;11.00;9.00;8.00
62599;PMS7003;48671;48.922;2.346;2022-09-03T02:20:18;11.50;9.00;6.75
62599;PMS7003;48671;48.922;2.346;2022-09-03T02:22:46;10.50;8.50;5.75
62599;PMS7003;48671;48.922;2.346;2022-09-03T02:25:14;9.25;7.75;5.75
62599;PMS7003;48671;48.922;2.346;2022-09-03T02:27:41;7.25;7.25;5.00
62599;PMS7003;48671;48.922;2.346;2022-09-03T02:30:07;8.00;8.00;6.00
62599;PMS7003;48671;48.922;2.346;2022-09-03T02:32:33;8.75;7.00;5.50
62599;PMS7003;48671;48.922;2.346;2022-09-03T02:34:59;10.25;9.00;6.00
62599;PMS7003;48671;48.922;2.346;2022-09-03T02:37:24;11.75;8.75;6.50
62599;PMS7003;48671;48.922;2.346;2022-09-03T02:39:50;7.75;7.75;5.25
62599;PMS7003;48671;48.922;2.346;2022-09-03T02:42:18;4.25;4.25;3.00
62599;PMS7003;48671;48.922;2.346;2022-09-03T02:44:54;7.00;7.00;5.75
62599;PMS7003;48671;48.922;2.346;2022-09-03T02:47:24;8.75;7.00;5.50
62599;PMS7003;48671;48.922;2.346;2022-09-03T02:49:55;8.25;7.50;5.25
62599;PMS7003;48671;48.922;2.346;2022-09-03T02:52:21;8.50;8.00;6.00
62599;PMS7003;48671;48.922;2.346;2022-09-03T02:54:46;8.50;7.75;6.75
62599;PMS7003;48671;48.922;2.346;2022-09-03T02:57:13;9.75;8.75;5.75
62599;PMS7003;48671;48.922;2.346;2022-09-03T02:59:40;9.50;9.50;7.00
62599;PMS7003;48671;48.922;2.346;2022-09-03T03:02:08;9.50;7.75;6.25
62599;PMS7003;48671;48.922;2.346;2022-09-03T03:04:34;9.25;8.25;6.50
62599;PMS7003;48671;48.922;2.346;2022-09-03T03:06:59;8.50;8.50;6.25
62599;PMS7003;48671;48.922;2.346;2022-09-03T03:09:24;7.25;7.25;4.75
62599;PMS7003;48671;48.922;2.346;2022-09-03T03:11:50;8.00;8.00;5.75
62599;PMS7003;48671;48.922;2.346;2022-09-03T03:14:16;11.00;10.00;6.00
62599;PMS7003;48671;48.922;2.346;2022-09-03T03:16:42;8.50;7.75;6.00
62599;PMS7003;48671;48.922;2.346;2022-09-03T03:19:08;6.75;6.75;4.75
62599;PMS7003;48671;48.922;2.346;2022-09-03T03:21:33;10.50;9.00;6.75
62599;PMS7003;48671;48.922;2.346;2022-09-03T03:23:59;11.50;10.75;6.50
62599;PMS7003;48671;48.922;2.346;2022-09-03T03:26:25;10.00;10.00;7.00
62599;PMS7003;48671;48.922;2.346;2022-09-03T03:28:54;10.75;9.00;6.75
62599;PMS7003;48671;48.922;2.346;2022-09-03T03:31:22;10.25;7.00;6.00
62599;PMS7003;48671;48.922;2.346;2022-09-03T03:33:51;10.75;8.75;5.50
62599;PMS7003;48671;48.922;2.346;2022-09-03T03:36:18;11.50;9.00;6.50
62599;PMS7003;48671;48.922;2.346;2022-09-03T03:38:44;9.50;8.50;6.75
62599;PMS7003;48671;48.922;2.346;2022-09-03T03:41:11;11.50;9.00;7.50
62599;PMS7003;48671;48.922;2.346;2022-09-03T03:43:39;12.50;12.25;7.25
62599;PMS7003;48671;48.922;2.346;2022-09-03T03:46:05;10.50;9.25;7.50
62599;PMS7003;48671;48.922;2.346;2022-09-03T03:48:31;14.75;13.50;8.00
62599;PMS7003;48671;48.922;2.346;2022-09-03T03:51:03;10.00;10.00;6.50
62599;PMS7003;48671;48.922;2.346;2022-09-03T03:53:31;10.50;9.50;6.75
62599;PMS7003;48671;48.922;2.346;2022-09-03T03:55:58;9.25;7.75;6.00
62599;PMS7003;48671;48.922;2.346;2022-09-03T03:58:26;12.00;10.25;7.50
62599;PMS7003;48671;48.922;2.346;2022-09-03T04:00:53;11.00;11.00;8.00
62599;PMS7003;48671;48.922;2.346;2022-09-03T04:03:18;11.25;11.25;8.00
62599;PMS7003;48671;48.922;2.346;2022-09-03T04:05:57;11.50;11.50;7.75
62599;PMS7003;48671;48.922;2.346;2022-09-03T04:08:24;16.50;11.50;8.25
62599;PMS7003;48671;48.922;2.346;2022-09-03T04:10:49;11.50;10.00;8.00
62599;PMS7003;48671;48.922;2.346;2022-09-03T04:13:15;13.25;10.50;8.25
62599;PMS7003;48671;48.922;2.346;2022-09-03T04:15:41;12.00;10.25;8.00
62599;PMS7003;48671;48.922;2.346;2022-09-03T04:18:06;10.75;10.00;8.00
62599;PMS7003;48671;48.922;2.346;2022-09-03T04:20:32;12.00;10.75;8.50
62599;PMS7003;48671;48.922;2.346;2022-09-03T04:22:59;13.25;11.00;7.75
62599;PMS7003;48671;48.922;2.346;2022-09-03T04:25:25;9.25;9.25;7.50
62599;PMS7003;48671;48.922;2.346;2022-09-03T04:27:51;10.00;9.75;6.00
62599;PMS7003;48671;48.922;2.346;2022-09-03T04:30:17;47.75;37.00;22.00
62599;PMS7003;48671;48.922;2.346;2022-09-03T04:32:42;12.25;11.75;9.25
62599;PMS7003;48671;48.922;2.346;2022-09-03T04:35:17;12.25;10.00;6.50
62599;PMS7003;48671;48.922;2.346;2022-09-03T04:37:44;11.50;10.00;7.75
62599;PMS7003;48671;48.922;2.346;2022-09-03T04:40:10;11.50;10.25;7.00
62599;PMS7003;48671;48.922;2.346;2022-09-03T04:42:35;10.50;10.50;7.25
62599;PMS7003;48671;48.922;2.346;2022-09-03T04:45:01;14.75;12.25;8.00
62599;PMS7003;48671;48.922;2.346;2022-09-03T04:47:26;13.25;10.75;8.75
62599;PMS7003;48671;48.922;2.346;2022-09-03T04:49:52;15.50;12.00;7.50
62599;PMS7003;48671;48.922;2.346;2022-09-03T04:52:18;12.25;10.00;7.00
62599;PMS7003;48671;48.922;2.346;2022-09-03T04:54:43;11.25;8.50;6.25
62599;PMS7003;48671;48.922;2.346;2022-09-03T04:57:08;11.75;11.50;8.75
62599;PMS7003;48671;48.922;2.346;2022-09-03T04:59:34;11.00;10.75;7.50
62599;PMS7003;48671;48.922;2.346;2022-09-03T05:01:59;12.50;10.50;8.75
62599;PMS7003;48671;48.922;2.346;2022-09-03T05:04:25;12.00;12.00;8.25
62599;PMS7003;48671;48.922;2.346;2022-09-03T05:06:50;12.50;12.50;8.75
62599;PMS7003;48671;48.922;2.346;2022-09-03T05:09:15;12.75;11.25;9.00
62599;PMS7003;48671;48.922;2.346;2022-09-03T05:11:41;13.75;12.00;7.50
62599;PMS7003;48671;48.922;2.346;2022-09-03T05:14:06;13.50;11.00;8.00
62599;PMS7003;48671;48.922;2.346;2022-09-03T05:16:35;12.75;11.00;7.00
62599;PMS7003;48671;48.922;2.346;2022-09-03T05:19:00;12.00;12.00;8.00
62599;PMS7003;48671;48.922;2.346;2022-09-03T05:21:29;13.00;13.00;8.00
62599;PMS7003;48671;48.922;2.346;2022-09-03T05:23:55;15.75;11.75;9.00
62599;PMS7003;48671;48.922;2.346;2022-09-03T05:26:22;13.50;11.75;9.00
62599;PMS7003;48671;48.922;2.346;2022-09-03T05:28:54;12.00;12.00;8.00
62599;PMS7003;48671;48.922;2.346;2022-09-03T05:31:21;11.50;10.50;7.00
62599;PMS7003;48671;48.922;2.346;2022-09-03T05:33:50;10.25;9.00;7.00
62599;PMS7003;48671;48.922;2.346;2022-09-03T05:36:18;13.00;12.50;10.00
62599;PMS7003;48671;48.922;2.346;2022-09-03T05:38:46;10.25;10.25;7.00
62599;PMS7003;48671;48.922;2.346;2022-09-03T05:41:13;8.75;8.75;8.00
62599;PMS7003;48671;48.922;2.346;2022-09-03T05:43:39;12.50;10.75;7.75
62599;PMS7003;48671;48.922;2.346;2022-09-03T05:46:09;15.25;12.00;9.00
62599;PMS7003;48671;48.922;2.346;2022-09-03T05:48:38;15.25;11.00;8.00
62599;PMS7003;48671;48.922;2.346;2022-09-03T05:51:08;12.25;11.00;7.25
62599;PMS7003;48671;48.922;2.346;2022-09-03T05:53:36;12.00;11.25;8.00
62599;PMS7003;48671;48.922;2.346;2022-09-03T05:56:04;14.00;12.50;9.00
62599;PMS7003;48671;48.922;2.346;2022-09-03T05:58:38;12.75;10.00;8.00
62599;PMS7003;48671;48.922;2.346;2022-09-03T06:01:10;11.25;9.50;7.50
62599;PMS7003;48671;48.922;2.346;2022-09-03T06:03:38;11.25;10.25;8.50
62599;PMS7003;48671;48.922;2.346;2022-09-03T06:06:05;17.25;13.50;7.75
62599;PMS7003;48671;48.922;2.346;2022-09-03T06:08:31;12.50;11.25;7.75
62599;PMS7003;48671;48.922;2.346;2022-09-03T06:10:57;12.50;12.50;8.00
62599;PMS7003;48671;48.922;2.346;2022-09-03T06:13:23;14.00;14.00;9.75
62599;PMS7003;48671;48.922;2.346;2022-09-03T06:15:49;17.00;14.25;9.00
62599;PMS7003;48671;48.922;2.346;2022-09-03T06:18:14;13.25;10.75;7.75
62599;PMS7003;48671;48.922;2.346;2022-09-03T06:20:39;11.75;11.75;7.25
62599;PMS7003;48671;48.922;2.346;2022-09-03T06:23:05;14.75;14.25;10.00
62599;PMS7003;48671;48.922;2.346;2022-09-03T06:25:30;10.00;9.25;8.50
62599;PMS7003;48671;48.922;2.346;2022-09-03T06:27:56;14.00;14.00;9.00
62599;PMS7003;48671;48.922;2.346;2022-09-03T06:30:21;13.25;11.00;8.00
62599;PMS7003;48671;48.922;2.346;2022-09-03T06:32:48;9.00;9.00;7.00
62599;PMS7003;48671;48.922;2.346;2022-09-03T06:35:17;14.00;11.00;8.25
62599;PMS7003;48671;48.922;2.346;2022-09-03T06:37:42;11.00;11.00;7.50
62599;PMS7003;48671;48.922;2.346;2022-09-03T06:40:08;10.25;10.25;8.00
62599;PMS7003;48671;48.922;2.346;2022-09-03T06:42:38;19.75;15.00;11.25
62599;PMS7003;48671;48.922;2.346;2022-09-03T06:45:06;12.25;12.25;7.50
62599;PMS7003;48671;48.922;2.346;2022-09-03T06:47:32;13.75;12.75;9.00
62599;PMS7003;48671;48.922;2.346;2022-09-03T06:49:58;12.25;11.25;8.00
62599;PMS7003;48671;48.922;2.346;2022-09-03T06:52:24;13.50;11.25;7.25
62599;PMS7003;48671;48.922;2.346;2022-09-03T06:54:50;13.00;11.50;7.75
62599;PMS7003;48671;48.922;2.346;2022-09-03T06:57:16;13.25;12.25;9.00
62599;PMS7003;48671;48.922;2.346;2022-09-03T06:59:41;14.50;12.00;9.00
62599;PMS7003;48671;48.922;2.346;2022-09-03T07:02:08;13.00;13.00;8.75
62599;PMS7003;48671;48.922;2.346;2022-09-03T07:04:34;13.00;10.75;7.75
62599;PMS7003;48671;48.922;2.346;2022-09-03T07:06:59;15.25;13.00;10.00
62599;PMS7003;48671;48.922;2.346;2022-09-03T07:09:25;14.00;13.25;9.50
62599;PMS7003;48671;48.922;2.346;2022-09-03T07:11:51;13.25;11.75;8.00
62599;PMS7003;48671;48.922;2.346;2022-09-03T07:14:17;16.50;13.00;9.25
62599;PMS7003;48671;48.922;2.346;2022-09-03T07:16:44;15.00;13.00;9.75
62599;PMS7003;48671;48.922;2.346;2022-09-03T07:19:10;14.25;13.00;10.00
62599;PMS7003;48671;48.922;2.346;2022-09-03T07:21:37;11.75;11.00;7.00
62599;PMS7003;48671;48.922;2.346;2022-09-03T07:24:05;13.75;12.00;8.75
62599;PMS7003;48671;48.922;2.346;2022-09-03T07:26:32;13.00;11.00;8.00
62599;PMS7003;48671;48.922;2.346;2022-09-03T07:29:00;12.50;12.00;8.00
62599;PMS7003;48671;48.922;2.346;2022-09-03T07:31:26;13.25;11.25;9.00
62599;PMS7003;48671;48.922;2.346;2022-09-03T07:33:58;14.50;11.75;8.75
62599;PMS7003;48671;48.922;2.346;2022-09-03T07:36:26;9.50;9.00;7.00
62599;PMS7003;48671;48.922;2.346;2022-09-03T07:38:56;11.00;9.50;7.75
62599;PMS7003;48671;48.922;2.346;2022-09-03T07:41:23;12.00;12.00;8.00
62599;PMS7003;48671;48.922;2.346;2022-09-03T07:43:50;13.50;8.75;6.75
62599;PMS7003;48671;48.922;2.346;2022-09-03T07:46:20;10.00;8.75;6.25
62599;PMS7003;48671;48.922;2.346;2022-09-03T07:48:53;8.50;7.75;5.50
62599;PMS7003;48671;48.922;2.346;2022-09-03T07:51:21;10.75;10.25;8.75
62599;PMS7003;48671;48.922;2.346;2022-09-03T07:53:50;11.50;11.00;8.00
62599;PMS7003;48671;48.922;2.346;2022-09-03T07:56:18;9.25;8.75;6.75
62599;PMS7003;48671;48.922;2.346;2022-09-03T07:58:43;10.25;10.25;7.00
62599;PMS7003;48671;48.922;2.346;2022-09-03T08:01:10;9.00;9.00;7.00
62599;PMS7003;48671;48.922;2.346;2022-09-03T08:03:37;10.50;8.00;6.50
62599;PMS7003;48671;48.922;2.346;2022-09-03T08:06:07;11.75;11.25;8.00
62599;PMS7003;48671;48.922;2.346;2022-09-03T08:08:33;12.25;8.75;6.00
62599;PMS7003;48671;48.922;2.346;2022-09-03T08:11:13;8.50;7.50;5.00
62599;PMS7003;48671;48.922;2.346;2022-09-03T08:16:11;8.25;7.50;5.25
62599;PMS7003;48671;48.922;2.346;2022-09-03T08:18:37;10.00;6.25;5.00
62599;PMS7003;48671;48.922;2.346;2022-09-03T08:21:07;5.50;5.25;4.00
62599;PMS7003;48671;48.922;2.346;2022-09-03T08:23:40;9.50;6.25;4.50
62599;PMS7003;48671;48.922;2.346;2022-09-03T08:26:07;10.50;8.75;6.00
62599;PMS7003;48671;48.922;2.346;2022-09-03T08:28:34;8.00;6.00;4.75
62599;PMS7003;48671;48.922;2.346;2022-09-03T08:31:04;6.50;6.50;4.50
62599;PMS7003;48671;48.922;2.346;2022-09-03T08:33:35;8.00;7.25;6.00
62599;PMS7003;48671;48.922;2.346;2022-09-03T08:36:05;8.75;8.25;6.00
62599;PMS7003;48671;48.922;2.346;2022-09-03T08:38:33;7.50;7.50;4.50
62599;PMS7003;48671;48.922;2.346;2022-09-03T08:41:06;6.50;6.25;5.25
62599;PMS7003;48671;48.922;2.346;2022-09-03T08:43:32;9.25;7.25;5.25
62599;PMS7003;48671;48.922;2.346;2022-09-03T08:46:08;8.50;5.25;5.00
62599;PMS7003;48671;48.922;2.346;2022-09-03T08:48:33;8.25;7.00;4.50
62599;PMS7003;48671;48.922;2.346;2022-09-03T08:50:59;7.00;7.00;5.00
62599;PMS7003;48671;48.922;2.346;2022-09-03T08:56:17;7.25;7.25;5.50
62599;PMS7003;48671;48.922;2.346;2022-09-03T08:58:49;6.00;6.00;5.75
62599;PMS7003;48671;48.922;2.346;2022-09-03T09:01:24;9.00;7.00;4.75
62599;PMS7003;48671;48.922;2.346;2022-09-03T09:04:07;8.75;8.00;6.00
62599;PMS7003;48671;48.922;2.346;2022-09-03T09:09:32;5.50;5.50;4.00
62599;PMS7003;48671;48.922;2.346;2022-09-03T09:15:26;9.00;8.00;6.00
62599;PMS7003;48671;48.922;2.346;2022-09-03T09:18:02;6.25;5.00;4.00
62599;PMS7003;48671;48.922;2.346;2022-09-03T09:20:47;5.50;5.00;4.00
62599;PMS7003;48671;48.922;2.346;2022-09-03T09:23:45;8.00;6.75;5.25
62599;PMS7003;48671;48.922;2.346;2022-09-03T09:26:18;6.75;6.25;5.50
62599;PMS7003;48671;48.922;2.346;2022-09-03T09:28:46;6.50;6.00;5.00
62599;PMS7003;48671;48.922;2.346;2022-09-03T09:31:18;5.00;5.00;4.00
62599;PMS7003;48671;48.922;2.346;2022-09-03T09:33:44;5.00;5.00;4.25
62599;PMS7003;48671;48.922;2.346;2022-09-03T09:36:11;6.25;5.25;3.25
62599;PMS7003;48671;48.922;2.346;2022-09-03T09:38:41;5.75;5.75;4.00
62599;PMS7003;48671;48.922;2.346;2022-09-03T09:41:08;5.75;5.75;4.25
62599;PMS7003;48671;48.922;2.346;2022-09-03T09:43:39;7.50;6.50;4.00
62599;PMS7003;48671;48.922;2.346;2022-09-03T09:46:06;5.75;5.25;4.00
62599;PMS7003;48671;48.922;2.346;2022-09-03T09:48:37;5.25;4.25;3.25
62599;PMS7003;48671;48.922;2.346;2022-09-03T09:51:24;5.50;5.50;3.75
62599;PMS7003;48671;48.922;2.346;2022-09-03T09:56:36;6.00;6.00;4.00
62599;PMS7003;48671;48.922;2.346;2022-09-03T09:59:02;4.75;4.75;3.25
62599;PMS7003;48671;48.922;2.346;2022-09-03T10:01:32;4.75;4.75;4.00
62599;PMS7003;48671;48.922;2.346;2022-09-03T10:04:08;4.00;4.00;4.00
62599;PMS7003;48671;48.922;2.346;2022-09-03T10:06:35;5.50;5.50;4.00
62599;PMS7003;48671;48.922;2.346;2022-09-03T10:09:28;4.00;4.00;3.25
62599;PMS7003;48671;48.922;2.346;2022-09-03T10:14:43;10.25;7.50;5.00
62599;PMS7003;48671;48.922;2.346;2022-09-03T10:22:54;7.75;6.50;5.00
62599;PMS7003;48671;48.922;2.346;2022-09-03T10:25:20;8.00;5.75;4.50
62599;PMS7003;48671;48.922;2.346;2022-09-03T10:27:49;7.00;5.00;4.00
62599;PMS7003;48671;48.922;2.346;2022-09-03T10:30:17;4.00;4.00;3.75
62599;PMS7003;48671;48.922;2.346;2022-09-03T10:35:30;7.50;5.75;4.00
62599;PMS7003;48671;48.922;2.346;2022-09-03T10:38:05;7.50;5.00;4.00
62599;PMS7003;48671;48.922;2.346;2022-09-03T10:40:43;7.00;5.00;3.00
62599;PMS7003;48671;48.922;2.346;2022-09-03T10:43:53;7.50;5.50;4.00
62599;PMS7003;48671;48.922;2.346;2022-09-03T10:46:26;7.50;5.25;4.00
62599;PMS7003;48671;48.922;2.346;2022-09-03T10:52:16;4.00;4.00;3.00
62599;PMS7003;48671;48.922;2.346;2022-09-03T10:57:30;5.50;4.25;3.50
62599;PMS7003;48671;48.922;2.346;2022-09-03T11:00:08;5.50;4.50;4.00
62599;PMS7003;48671;48.922;2.346;2022-09-03T11:02:44;5.75;5.75;5.00
62599;PMS7003;48671;48.922;2.346;2022-09-03T11:05:20;5.00;5.00;3.00
62599;PMS7003;48671;48.922;2.346;2022-09-03T11:07:58;7.00;5.50;4.75
62599;PMS7003;48671;48.922;2.346;2022-09-03T11:10:31;6.25;4.75;4.00
62599;PMS7003;48671;48.922;2.346;2022-09-03T11:15:49;4.50;4.25;4.00
62599;PMS7003;48671;48.922;2.346;2022-09-03T11:21:09;4.75;4.50;3.25
62599;PMS7003;48671;48.922;2.346;2022-09-03T11:23:42;4.75;4.75;3.75
62599;PMS7003;48671;48.922;2.346;2022-09-03T11:26:14;6.75;6.75;4.00
62599;PMS7003;48671;48.922;2.346;2022-09-03T11:28:43;5.25;5.00;3.00
62599;PMS7003;48671;48.922;2.346;2022-09-03T11:33:58;5.00;5.00;3.50
62599;PMS7003;48671;48.922;2.346;2022-09-03T11:36:31;5.50;5.25;3.75
62599;PMS7003;48671;48.922;2.346;2022-09-03T11:38:58;8.25;5.00;4.00
62599;PMS7003;48671;48.922;2.346;2022-09-03T11:41:28;5.00;5.00;4.00
62599;PMS7003;48671;48.922;2.346;2022-09-03T11:44:09;4.00;4.00;3.00
62599;PMS7003;48671;48.922;2.346;2022-09-03T11:46:38;7.25;5.25;3.50
62599;PMS7003;48671;48.922;2.346;2022-09-03T11:49:11;4.25;3.50;2.25
62599;PMS7003;48671;48.922;2.346;2022-09-03T11:51:38;4.25;4.25;3.25
62599;PMS7003;48671;48.922;2.346;2022-09-03T11:56:40;3.25;3.25;2.25
62599;PMS7003;48671;48.922;2.346;2022-09-03T12:01:38;2.50;2.50;2.00
62599;PMS7003;48671;48.922;2.346;2022-09-03T12:04:12;1.50;1.50;1.25
62599;PMS7003;48671;48.922;2.346;2022-09-03T12:18:22;2.00;2.00;2.00
62599;PMS7003;48671;48.922;2.346;2022-09-03T12:26:05;4.00;4.00;3.00
62599;PMS7003;48671;48.922;2.346;2022-09-03T12:28:36;4.25;3.00;2.50
62599;PMS7003;48671;48.922;2.346;2022-09-03T12:31:12;2.00;2.00;1.00
62599;PMS7003;48671;48.922;2.346;2022-09-03T12:33:49;2.00;1.00;0.25
62599;PMS7003;48671;48.922;2.346;2022-09-03T12:36:34;0.75;0.50;0.00
62599;PMS7003;48671;48.922;2.346;2022-09-03T12:39:11;2.00;1.00;0.75
62599;PMS7003;48671;48.922;2.346;2022-09-03T12:41:59;1.00;0.00;0.00
62599;PMS7003;48671;48.922;2.346;2022-09-03T12:44:29;3.75;1.00;0.25
62599;PMS7003;48671;48.922;2.346;2022-09-03T12:49:49;0.25;0.25;0.25
62599;PMS7003;48671;48.922;2.346;2022-09-03T12:55:27;0.33;0.33;0.33
62599;PMS7003;48671;48.922;2.346;2022-09-03T12:57:51;0.75;0.75;0.25
62599;PMS7003;48671;48.922;2.346;2022-09-03T13:00:26;1.25;1.25;0.75
62599;PMS7003;48671;48.922;2.346;2022-09-03T13:05:59;1.00;1.00;1.00
62599;PMS7003;48671;48.922;2.346;2022-09-03T13:08:31;2.00;2.00;1.00
62599;PMS7003;48671;48.922;2.346;2022-09-03T13:11:02;2.00;0.25;0.00
62599;PMS7003;48671;48.922;2.346;2022-09-03T13:13:35;0.00;0.00;0.00
62599;PMS7003;48671;48.922;2.346;2022-09-03T13:23:56;5.00;5.00;3.33
62599;PMS7003;48671;48.922;2.346;2022-09-03T13:26:42;3.50;2.00;2.00
62599;PMS7003;48671;48.922;2.346;2022-09-03T13:31:44;0.75;0.75;0.25
62599;PMS7003;48671;48.922;2.346;2022-09-03T13:37:06;1.25;1.00;0.25
62599;PMS7003;48671;48.922;2.346;2022-09-03T13:39:57;1.25;1.25;0.25
62599;PMS7003;48671;48.922;2.346;2022-09-03T13:42:37;0.25;0.25;0.25
62599;PMS7003;48671;48.922;2.346;2022-09-03T13:47:56;0.25;0.25;0.00
62599;PMS7003;48671;48.922;2.346;2022-09-03T13:51:06;0.00;0.00;0.00
62599;PMS7003;48671;48.922;2.346;2022-09-03T13:53:47;1.25;0.00;0.00
62599;PMS7003;48671;48.922;2.346;2022-09-03T13:59:11;0.25;0.00;0.00
62599;PMS7003;48671;48.922;2.346;2022-09-03T14:01:58;1.00;1.00;0.50
62599;PMS7003;48671;48.922;2.346;2022-09-03T14:07:21;0.00;0.00;0.00
62599;PMS7003;48671;48.922;2.346;2022-09-03T14:17:55;1.25;1.25;0.25
62599;PMS7003;48671;48.922;2.346;2022-09-03T14:20:34;0.25;0.25;0.25
62599;PMS7003;48671;48.922;2.346;2022-09-03T14:23:54;0.25;0.25;0.00
62599;PMS7003;48671;48.922;2.346;2022-09-03T14:25:59;0.75;0.75;0.75
62599;PMS7003;48671;48.922;2.346;2022-09-03T14:28:30;1.25;1.25;1.00
62599;PMS7003;48671;48.922;2.346;2022-09-03T14:31:18;3.00;1.00;1.00
62599;PMS7003;48671;48.922;2.346;2022-09-03T14:34:14;0.00;0.00;0.00
62599;PMS7003;48671;48.922;2.346;2022-09-03T14:36:44;2.75;1.00;0.75
62599;PMS7003;48671;48.922;2.346;2022-09-03T14:44:47;1.00;1.00;0.25
62599;PMS7003;48671;48.922;2.346;2022-09-03T14:55:24;0.00;0.00;0.00
62599;PMS7003;48671;48.922;2.346;2022-09-03T15:00:55;2.00;2.00;1.25
62599;PMS7003;48671;48.922;2.346;2022-09-03T15:06:24;1.75;0.75;0.25
62599;PMS7003;48671;48.922;2.346;2022-09-03T15:11:24;0.50;0.50;0.50
62599;PMS7003;48671;48.922;2.346;2022-09-03T15:14:12;1.00;1.00;0.25
62599;PMS7003;48671;48.922;2.346;2022-09-03T15:16:59;3.25;2.25;0.25
62599;PMS7003;48671;48.922;2.346;2022-09-03T15:19:50;2.00;2.00;1.25
62599;PMS7003;48671;48.922;2.346;2022-09-03T15:28:37;3.00;2.00;1.25
62599;PMS7003;48671;48.922;2.346;2022-09-03T15:36:42;1.25;0.25;0.25
62599;PMS7003;48671;48.922;2.346;2022-09-03T15:39:23;4.75;1.00;0.00
62599;PMS7003;48671;48.922;2.346;2022-09-03T15:44:34;3.50;2.00;1.00
62599;PMS7003;48671;48.922;2.346;2022-09-03T15:47:08;1.50;1.50;1.00
62599;PMS7003;48671;48.922;2.346;2022-09-03T15:57:53;1.75;1.75;1.00
62599;PMS7003;48671;48.922;2.346;2022-09-03T16:00:29;1.50;1.50;1.00
62599;PMS7003;48671;48.922;2.346;2022-09-03T16:03:00;3.00;2.00;1.75
62599;PMS7003;48671;48.922;2.346;2022-09-03T16:05:40;1.25;1.25;0.00
62599;PMS7003;48671;48.922;2.346;2022-09-03T16:11:41;1.75;1.75;1.00
62599;PMS7003;48671;48.922;2.346;2022-09-03T16:14:28;4.00;4.00;2.00
62599;PMS7003;48671;48.922;2.346;2022-09-03T16:17:15;1.75;1.75;1.00
62599;PMS7003;48671;48.922;2.346;2022-09-03T16:19:58;3.00;3.00;1.00
62599;PMS7003;48671;48.922;2.346;2022-09-03T16:22:27;4.75;4.50;2.50
62599;PMS7003;48671;48.922;2.346;2022-09-03T16:30:35;3.25;2.50;1.25
62599;PMS7003;48671;48.922;2.346;2022-09-03T16:33:18;2.50;2.50;2.00
62599;PMS7003;48671;48.922;2.346;2022-09-03T16:38:37;5.00;3.50;2.25
62599;PMS7003;48671;48.922;2.346;2022-09-03T16:41:31;2.25;2.25;2.00
62599;PMS7003;48671;48.922;2.346;2022-09-03T16:55:15;3.00;3.00;2.00
62599;PMS7003;48671;48.922;2.346;2022-09-03T16:57:59;3.00;3.00;2.00
62599;PMS7003;48671;48.922;2.346;2022-09-03T17:11:40;4.75;3.25;2.25
62599;PMS7003;48671;48.922;2.346;2022-09-03T17:14:25;4.25;3.00;2.25
62599;PMS7003;48671;48.922;2.346;2022-09-03T17:19:48;5.25;5.25;3.75
62599;PMS7003;48671;48.922;2.346;2022-09-03T17:25:06;8.25;8.00;6.25
62599;PMS7003;48671;48.922;2.346;2022-09-03T17:27:52;5.75;5.50;3.25
62599;PMS7003;48671;48.922;2.346;2022-09-03T17:33:10;4.25;4.25;3.25
62599;PMS7003;48671;48.922;2.346;2022-09-03T17:36:11;5.25;4.25;3.00
62599;PMS7003;48671;48.922;2.346;2022-09-03T17:39:02;5.75;4.00;3.25
62599;PMS7003;48671;48.922;2.346;2022-09-03T17:52:01;5.75;5.75;5.00
62599;PMS7003;48671;48.922;2.346;2022-09-03T17:54:51;6.75;6.75;5.50
62599;PMS7003;48671;48.922;2.346;2022-09-03T17:57:22;6.50;6.25;4.00
62599;PMS7003;48671;48.922;2.346;2022-09-03T18:00:05;7.00;5.50;4.00
62599;PMS7003;48671;48.922;2.346;2022-09-03T18:02:40;8.75;7.25;5.00
62599;PMS7003;48671;48.922;2.346;2022-09-03T18:07:59;7.00;6.00;5.00
62599;PMS7003;48671;48.922;2.346;2022-09-03T18:10:40;8.25;7.25;5.00
62599;PMS7003;48671;48.922;2.346;2022-09-03T18:16:28;7.50;6.75;5.00
62599;PMS7003;48671;48.922;2.346;2022-09-03T18:18:58;12.00;7.00;4.00
62599;PMS7003;48671;48.922;2.346;2022-09-03T18:21:32;7.25;7.25;4.75
62599;PMS7003;48671;48.922;2.346;2022-09-03T18:27:11;10.25;8.25;6.25
62599;PMS7003;48671;48.922;2.346;2022-09-03T18:30:07;5.75;5.75;4.50
62599;PMS7003;48671;48.922;2.346;2022-09-03T18:32:53;9.75;9.50;6.75
62599;PMS7003;48671;48.922;2.346;2022-09-03T18:35:37;5.25;5.25;4.75
62599;PMS7003;48671;48.922;2.346;2022-09-03T18:38:26;8.25;7.00;5.75
62599;PMS7003;48671;48.922;2.346;2022-09-03T18:41:21;6.25;6.25;5.00
62599;PMS7003;48671;48.922;2.346;2022-09-03T18:44:44;7.00;7.00;5.00
62599;PMS7003;48671;48.922;2.346;2022-09-03T18:53:59;7.75;7.00;5.00
62599;PMS7003;48671;48.922;2.346;2022-09-03T18:57:22;10.75;8.50;6.00
62599;PMS7003;48671;48.922;2.346;2022-09-03T19:00:13;8.50;7.75;6.25
62599;PMS7003;48671;48.922;2.346;2022-09-03T19:03:03;9.00;8.25;5.25
62599;PMS7003;48671;48.922;2.346;2022-09-03T19:12:46;10.25;7.25;6.00
62599;PMS7003;48671;48.922;2.346;2022-09-03T19:15:39;8.50;7.00;5.00